»·PEaware :: N1511S KSTS-KSEZ

N1511S :: KSTS-KSEZ

FLIGHT INFORMATION

Flight Status: Arrived
Operator: Privately registered:
United States
More flights under this callsign
Pilot: Brendan R. (7498)
Aircraft: CESSNA 510 CITATION MUSTANG
(C510)
More flights by this aircraft type
Origin: KSTS Sonoma Co
United States
Destination: KSEZ Sedona
United States
More flights between these airports :: More routes between these airports
Route: +LIN V244 OAL J92 DRK
File this flight plan on PilotEdge
Remarks:
Altitude:
(Current/Filed)
31,000ft
Speed:
(Current/Filed)
250kts
Departed: 22-May-19 01:28 PM
Arrived: 22-May-19 03:21 PM
Distance/Time
Traveled:
574nm/1:53
Distance/Time
To Go:
Arrived

Flight Plot

Page will automatically refresh every two minutes.

Flight plan parsing failed; only flown route is shown


Map Options




Map Legend


Flown Route
Filed Route
Departure Airport
Arrival Airport
Navaid (VOR, NDB)
Fix

Horizontal Profiles

Position Reports

Time Latitude Longitude Heading Altitude Ground
Speed
22-May-19 12:19 38.508551 -122.805298 358 127ft 0kts
22-May-19 12:20 38.508551 -122.805298 358 127ft 0kts
22-May-19 12:21 38.508551 -122.805298 358 127ft 0kts
22-May-19 12:21 38.508551 -122.805298 358 127ft 0kts
22-May-19 12:23 38.508551 -122.805298 358 127ft 0kts
22-May-19 12:23 38.508551 -122.805298 358 127ft 0kts
22-May-19 12:24 38.508551 -122.805298 358 127ft 0kts
22-May-19 12:26 38.508551 -122.805298 358 127ft 0kts
22-May-19 12:26 38.508551 -122.805298 358 127ft 0kts
22-May-19 12:27 38.508551 -122.805298 358 127ft 0kts
22-May-19 12:28 38.508551 -122.805298 358 127ft 0kts
22-May-19 12:29 38.508551 -122.805298 358 127ft 0kts
22-May-19 12:30 38.508551 -122.805298 358 127ft 0kts
22-May-19 12:31 38.508551 -122.805298 358 127ft 0kts
22-May-19 12:32 38.508551 -122.805298 358 127ft 0kts
22-May-19 12:33 38.508551 -122.805298 358 127ft 0kts
22-May-19 12:34 38.508551 -122.805298 358 127ft 0kts
22-May-19 12:35 38.508551 -122.805298 358 127ft 0kts
22-May-19 12:36 38.508551 -122.805298 358 127ft 0kts
22-May-19 12:37 38.508551 -122.805298 358 127ft 0kts
22-May-19 12:38 38.508551 -122.805298 358 127ft 0kts
22-May-19 12:39 38.508551 -122.805298 358 127ft 0kts
22-May-19 12:40 38.508551 -122.805298 358 127ft 0kts
22-May-19 12:41 38.508551 -122.805298 358 127ft 0kts
22-May-19 12:42 38.508551 -122.805298 358 127ft 0kts
22-May-19 12:43 38.508551 -122.805298 358 127ft 0kts
22-May-19 12:44 38.508551 -122.805298 358 127ft 0kts
22-May-19 12:45 38.508551 -122.805298 358 127ft 0kts
22-May-19 12:46 38.508551 -122.805298 358 127ft 0kts
22-May-19 12:47 38.508551 -122.805298 358 127ft 0kts
22-May-19 12:48 38.508551 -122.805298 358 127ft 0kts
22-May-19 12:49 38.508551 -122.805298 358 127ft 0kts
22-May-19 12:50 38.508551 -122.805298 358 127ft 0kts
22-May-19 12:51 38.508551 -122.805298 358 127ft 0kts
22-May-19 12:52 38.508551 -122.805298 358 127ft 0kts
22-May-19 12:53 38.508551 -122.805298 358 127ft 0kts
22-May-19 12:54 38.508551 -122.805298 358 127ft 0kts
22-May-19 12:55 38.508551 -122.805298 358 127ft 0kts
22-May-19 12:56 38.508551 -122.805298 358 127ft 0kts
22-May-19 12:57 38.508551 -122.805298 358 127ft 0kts
22-May-19 12:58 38.508551 -122.805298 358 127ft 0kts
22-May-19 12:59 38.508551 -122.805298 358 127ft 0kts
22-May-19 13:00 38.508551 -122.805298 358 127ft 0kts
22-May-19 13:01 38.508551 -122.805298 358 127ft 0kts
22-May-19 13:02 38.508551 -122.805298 358 127ft 0kts
22-May-19 13:03 38.508551 -122.805298 358 127ft 0kts
22-May-19 13:04 38.508551 -122.805298 358 127ft 0kts
22-May-19 13:05 38.508551 -122.805298 358 127ft 0kts
22-May-19 13:06 38.508551 -122.805298 358 127ft 0kts
22-May-19 13:07 38.508551 -122.805298 358 127ft 0kts
22-May-19 13:08 38.508551 -122.805298 358 127ft 0kts
22-May-19 13:09 38.508551 -122.805298 358 127ft 0kts
22-May-19 13:10 38.508552 -122.805298 358 127ft 0kts
22-May-19 13:11 38.508553 -122.805298 358 127ft 0kts
22-May-19 13:12 38.508553 -122.805298 358 127ft 0kts
22-May-19 13:13 38.508554 -122.805299 358 127ft 0kts
22-May-19 13:14 38.508554 -122.805299 358 127ft 0kts
22-May-19 13:15 38.508702 -122.806411 263 127ft 3kts
22-May-19 13:16 38.506740 -122.806238 183 127ft 0kts
22-May-19 13:17 38.504139 -122.805082 156 127ft 15kts
22-May-19 13:18 38.502460 -122.804531 254 127ft 4kts
22-May-19 13:19 38.502441 -122.804645 263 127ft 0kts
22-May-19 13:20 38.502441 -122.804646 263 127ft 0kts
22-May-19 13:21 38.502441 -122.804646 263 127ft 0kts
22-May-19 13:22 38.502441 -122.804647 263 127ft 0kts
22-May-19 13:23 38.502441 -122.804648 263 127ft 0kts
22-May-19 13:24 38.502441 -122.804648 263 127ft 0kts
22-May-19 13:25 38.502441 -122.804649 263 127ft 0kts
22-May-19 13:26 38.502435 -122.804746 273 127ft 2kts
22-May-19 13:27 38.505299 -122.807305 337 127ft 69kts
22-May-19 13:28 38.531272 -122.820067 342 2050ft 106kts
22-May-19 13:29 38.565987 -122.829366 359 3971ft 169kts
22-May-19 13:30 38.623608 -122.810818 38 6303ft 235kts
22-May-19 13:31 38.626649 -122.728551 118 9493ft 269kts
22-May-19 13:32 38.572341 -122.652749 131 12423ft 298kts
22-May-19 13:33 38.536115 -122.560549 102 15818ft 295kts
22-May-19 13:34 38.511871 -122.458609 104 18566ft 304kts
22-May-19 13:35 38.483511 -122.354785 106 20722ft 317kts
22-May-19 13:36 38.453183 -122.250492 106 23023ft 313kts
22-May-19 13:37 38.422073 -122.145262 106 24689ft 324kts
22-May-19 13:38 38.389377 -122.035384 106 26007ft 340kts
22-May-19 13:39 38.354846 -121.920059 107 27158ft 356kts
22-May-19 13:40 38.319796 -121.803817 106 28396ft 353kts
22-May-19 13:41 38.284851 -121.688479 106 29604ft 345kts
22-May-19 13:42 38.250542 -121.575839 106 30577ft 340kts
22-May-19 13:43 38.215640 -121.461060 106 30872ft 359kts
22-May-19 13:44 38.178562 -121.339382 107 30863ft 377kts
22-May-19 13:45 38.141325 -121.219163 107 32199ft 351kts
22-May-19 13:46 38.106512 -121.107143 107 33532ft 334kts
22-May-19 13:47 38.073348 -120.998553 101 34559ft 325kts
22-May-19 13:48 38.063742 -120.884060 87 34887ft 337kts
22-May-19 13:49 38.058664 -120.762212 89 34871ft 339kts
22-May-19 13:50 38.051969 -120.644778 90 34878ft 334kts
22-May-19 13:51 38.044295 -120.526872 90 34880ft 335kts
22-May-19 13:52 38.036400 -120.409131 91 34880ft 336kts
22-May-19 13:53 38.028466 -120.290762 91 34880ft 337kts
22-May-19 13:54 38.021559 -120.188857 91 34881ft 337kts
22-May-19 13:55 38.013353 -120.070208 91 34883ft 338kts
22-May-19 13:56 38.005005 -119.951495 91 34885ft 338kts
22-May-19 13:57 37.996547 -119.832909 91 34888ft 338kts
22-May-19 13:58 37.987956 -119.713750 91 34888ft 340kts
22-May-19 13:59 37.979208 -119.594221 92 34884ft 342kts
22-May-19 14:00 37.970271 -119.473453 92 34885ft 345kts
22-May-19 14:01 37.960993 -119.352180 92 34888ft 347kts
22-May-19 14:02 37.940824 -119.231840 107 34893ft 351kts
22-May-19 14:03 37.909067 -119.114645 108 34897ft 353kts
22-May-19 14:04 37.877949 -118.996878 108 34900ft 353kts
22-May-19 14:05 37.847573 -118.878750 108 34903ft 352kts
22-May-19 14:06 37.817560 -118.760933 108 34895ft 351kts
22-May-19 14:07 37.787642 -118.643436 108 34889ft 350kts
22-May-19 14:08 37.757779 -118.526499 108 34875ft 348kts
22-May-19 14:09 37.730639 -118.420651 108 34858ft 347kts
22-May-19 14:10 37.700837 -118.304929 108 34815ft 346kts
22-May-19 14:11 37.671085 -118.189889 108 34799ft 345kts
22-May-19 14:12 37.641217 -118.074939 108 34799ft 344kts
22-May-19 14:13 37.611329 -117.960284 109 34810ft 345kts
22-May-19 14:14 37.581155 -117.845058 109 34819ft 346kts
22-May-19 14:15 37.550798 -117.729662 110 34815ft 349kts
22-May-19 14:16 37.519930 -117.612831 110 34811ft 352kts
22-May-19 14:18 37.488732 -117.495704 110 34809ft 354kts
22-May-19 14:19 37.457095 -117.377765 111 34806ft 357kts
22-May-19 14:20 37.417766 -117.276482 140 34808ft 346kts
22-May-19 14:21 37.343320 -117.202832 153 34789ft 338kts
22-May-19 14:22 37.265151 -117.136923 155 34778ft 338kts
22-May-19 14:23 37.186450 -117.070861 155 34770ft 339kts
22-May-19 14:24 37.108028 -117.004891 155 34760ft 340kts
22-May-19 14:25 37.029143 -116.938543 156 34752ft 341kts
22-May-19 14:26 36.950513 -116.872653 157 34744ft 341kts
22-May-19 14:27 36.871220 -116.806506 157 34736ft 342kts
22-May-19 14:28 36.793793 -116.736774 141 34731ft 361kts
22-May-19 14:29 36.742108 -116.624794 123 34723ft 379kts
22-May-19 14:30 36.696385 -116.505347 124 34716ft 381kts
22-May-19 14:31 36.648959 -116.386630 126 34709ft 383kts
22-May-19 14:32 36.600198 -116.268459 127 34703ft 385kts
22-May-19 14:33 36.550627 -116.150129 128 34702ft 388kts
22-May-19 14:34 36.500251 -116.030935 128 34702ft 390kts
22-May-19 14:35 36.449576 -115.911589 129 34699ft 391kts
22-May-19 14:36 36.398471 -115.791798 129 34698ft 392kts
22-May-19 14:37 36.347423 -115.672685 130 34701ft 391kts
22-May-19 14:37 36.305590 -115.575267 130 34708ft 390kts
22-May-19 14:39 36.246069 -115.437230 130 34721ft 389kts
22-May-19 14:40 36.194969 -115.319123 130 34728ft 389kts
22-May-19 14:40 36.152292 -115.220699 130 34730ft 387kts
22-May-19 14:42 36.092753 -115.083968 130 34731ft 388kts
22-May-19 14:42 36.049774 -114.986027 130 34746ft 388kts
22-May-19 14:43 35.998231 -114.869128 132 34758ft 387kts
22-May-19 14:44 35.940825 -114.755983 138 34760ft 388kts
22-May-19 14:45 35.883892 -114.648080 139 34755ft 346kts
22-May-19 14:46 35.831889 -114.550876 141 34753ft 341kts
22-May-19 14:47 35.779292 -114.453036 140 34752ft 343kts
22-May-19 14:48 35.727141 -114.354804 140 34750ft 341kts
22-May-19 14:49 35.675183 -114.257071 141 34749ft 342kts
22-May-19 14:50 35.623145 -114.159570 141 34751ft 341kts
22-May-19 14:51 35.570759 -114.061977 141 34755ft 341kts
22-May-19 14:52 35.518547 -113.964763 141 34759ft 341kts
22-May-19 14:53 35.465869 -113.867159 141 34770ft 344kts
22-May-19 14:54 35.412983 -113.769263 141 34770ft 344kts
22-May-19 14:55 35.359970 -113.671492 141 34772ft 346kts
22-May-19 14:56 35.306608 -113.573224 141 34774ft 346kts
22-May-19 14:57 35.252205 -113.473738 141 33478ft 357kts
22-May-19 14:58 35.196343 -113.371589 140 30976ft 364kts
22-May-19 14:59 35.140199 -113.268745 139 28687ft 358kts
22-May-19 15:00 35.085622 -113.168989 138 26693ft 348kts
22-May-19 15:01 35.032007 -113.071751 137 24696ft 342kts
22-May-19 15:02 34.977420 -112.973739 134 21859ft 354kts
22-May-19 15:03 34.922739 -112.874869 132 19236ft 341kts
22-May-19 15:04 34.872779 -112.783969 132 17330ft 308kts
22-May-19 15:05 34.825122 -112.698752 131 15434ft 312kts
22-May-19 15:06 34.795077 -112.603255 88 13551ft 309kts
22-May-19 15:07 34.811257 -112.503075 80 11714ft 297kts
22-May-19 15:08 34.828920 -112.405896 80 9819ft 290kts
22-May-19 15:09 34.845153 -112.312043 80 9010ft 281kts
22-May-19 15:10 34.861174 -112.217746 80 9000ft 285kts
22-May-19 15:11 34.877152 -112.124535 80 9002ft 287kts
22-May-19 15:12 34.893596 -112.029203 80 9000ft 287kts
22-May-19 15:13 34.910291 -111.933862 80 8995ft 282kts
22-May-19 15:14 34.914447 -111.846973 81 9089ft 250kts
22-May-19 15:15 34.937117 -111.778008 69 8609ft 188kts
22-May-19 15:16 34.939067 -111.729986 142 8061ft 115kts
22-May-19 15:17 34.904149 -111.727845 202 6958ft 138kts
22-May-19 15:18 34.877071 -111.754065 220 5811ft 117kts
22-May-19 15:19 34.855117 -111.780390 217 4860ft 101kts
22-May-19 15:20 34.845219 -111.792959 292 4777ft 10kts
22-May-19 15:21 34.846456 -111.792327 46 4777ft 5kts
22-May-19 15:22 34.848002 -111.790365 44 4777ft 6kts
22-May-19 15:23 34.849373 -111.789453 280 4777ft 3kts
22-May-19 15:24 34.849393 -111.789493 314 4777ft 0kts
22-May-19 15:25 34.849393 -111.789493 314 4777ft 0kts
22-May-19 15:26 34.849393 -111.789493 314 4777ft 0kts
22-May-19 15:27 34.849393 -111.789493 314 4777ft 0kts
22-May-19 15:28 34.849393 -111.789493 314 4777ft 0kts
22-May-19 15:29 34.849393 -111.789493 314 4777ft 0kts
22-May-19 15:30 34.849393 -111.789493 314 4777ft 0kts
22-May-19 15:31 34.849393 -111.789493 314 4777ft 0kts
22-May-19 15:32 34.849393 -111.789493 314 4777ft 0kts
22-May-19 15:33 34.849393 -111.789493 314 4777ft 0kts
22-May-19 15:34 34.849393 -111.789493 314 4777ft 0kts

Navigation Log

Ident Type
Flight plan parsing failed, navigation log unavailable